Plains, Montana
Current Conditions -  °F | °C
As of 4:53 PM on Saturday 20 Dec 2014 (Local Time) from KMLP Reporting Station
Light Snow Light Snow  
Wind Chill: 22°   Ceiling: 300
Heat Index: 30°   Visibility: 0.5mi
Dew Point: 27°   Wind: 8mph
Humidity: 88%   Direction: 170°S
Pressure: 29.67"   Gusts: NA
Location:  47.46°N, 114.88°W
Report Text: KMLP 202353Z AUTO 17007KT 130V230 1/2SM -SN FZFG VV003 M01/M03 A2967 RMK AO2 SLP071 P0002 60010 T10111028 11006 21022 58014
Loading
Personal Weather Stations






























Interactive Weather Map New forecast layout! Learn more

10-Day Weather Forecast

Advertisements
Track Severe Weather on mobile